Time;durP1;ratioP1;P1;durP2;ratioP2;P2;SDS_P1;SDS_P2;PMS_P1;PMS_P2;Temp;Humidity;BMP_temperature;BMP_pressure;BME280_temperature;BME280_humidity;BME280_pressure;Samples;Min_cycle;Max_cycle;Signal;HPM_P1;HPM_P2
2021/07/17 00:01:59;;;;;;;1.20;1.00;;;;;;;;;;5016399;28;20412;-75
2021/07/17 00:04:25;;;;;;;1.40;1.30;;;;;;;;;;5024028;28;20879;-75
2021/07/17 00:06:51;;;;;;;0.90;0.90;;;;;;;;;;5032028;28;20421;-75
2021/07/17 00:09:17;;;;;;;1.40;1.30;;;;;;;;;;5032025;28;20459;-75
2021/07/17 00:11:43;;;;;;;1.10;1.00;;;;;;;;;;5029474;28;20405;-74
2021/07/17 00:14:09;;;;;;;0.90;0.90;;;;;;;;;;5012079;28;20509;-75
2021/07/17 00:16:35;;;;;;;1.80;0.97;;;;;;;;;;5012142;28;20772;-75
2021/07/17 00:19:01;;;;;;;1.60;1.47;;;;;;;;;;5012056;28;20894;-75
2021/07/17 00:21:27;;;;;;;1.53;1.43;;;;;;;;;;4998378;28;20448;-75
2021/07/17 00:23:53;;;;;;;1.17;1.07;;;;;;;;;;4991111;28;20448;-75
2021/07/17 00:26:19;;;;;;;1.20;1.10;;;;;;;;;;5007265;28;20437;-75
2021/07/17 00:28:45;;;;;;;1.10;0.90;;;;;;;;;;5012057;28;20981;-74
2021/07/17 00:31:11;;;;;;;1.60;1.50;;;;;;;;;;5012308;28;20399;-74
2021/07/17 00:33:37;;;;;;;0.90;0.90;;;;;;;;;;5022300;28;20433;-74
2021/07/17 00:36:03;;;;;;;1.30;1.20;;;;;;;;;;5021381;28;20468;-75
2021/07/17 00:38:29;;;;;;;1.60;1.50;;;;;;;;;;5011308;28;20432;-74
2021/07/17 00:40:55;;;;;;;0.97;0.97;;;;;;;;;;5011977;28;20424;-74
2021/07/17 00:43:21;;;;;;;0.80;0.80;;;;;;;;;;5011885;28;20454;-75
2021/07/17 00:45:47;;;;;;;0.90;0.90;;;;;;;;;;5011712;28;20468;-75
2021/07/17 00:48:13;;;;;;;1.53;1.23;;;;;;;;;;5011973;28;20472;-75
2021/07/17 00:50:39;;;;;;;1.27;0.90;;;;;;;;;;5012616;28;20484;-75
2021/07/17 00:53:05;;;;;;;0.90;0.90;;;;;;;;;;5012499;28;20447;-75
2021/07/17 00:55:33;;;;;;;2.70;1.20;;;;;;;;;;5011589;28;20965;-74
2021/07/17 00:58:00;;;;;;;2.00;1.43;;;;;;;;;;5011736;28;20421;-75
2021/07/17 01:00:26;;;;;;;1.50;1.40;;;;;;;;;;5011884;28;20444;-74
2021/07/17 01:02:53;;;;;;;1.10;1.00;;;;;;;;;;5005662;28;20447;-74
2021/07/17 01:05:19;;;;;;;0.90;0.90;;;;;;;;;;5031465;28;20436;-74
2021/07/17 01:07:46;;;;;;;1.87;1.77;;;;;;;;;;5031403;28;20416;-75
2021/07/17 01:10:12;;;;;;;1.47;1.37;;;;;;;;;;5031494;28;20421;-74
2021/07/17 01:12:38;;;;;;;1.30;1.20;;;;;;;;;;5020172;28;20461;-74
2021/07/17 01:15:04;;;;;;;2.77;1.30;;;;;;;;;;5015266;28;20473;-74
2021/07/17 01:17:30;;;;;;;3.40;1.87;;;;;;;;;;5015278;28;20420;-75
2021/07/17 01:19:56;;;;;;;1.60;1.50;;;;;;;;;;5014820;28;20904;-74
2021/07/17 01:22:22;;;;;;;2.63;2.43;;;;;;;;;;5015228;28;20959;-74
2021/07/17 01:24:48;;;;;;;4.10;2.60;;;;;;;;;;5014678;28;20445;-75
2021/07/17 01:27:17;;;;;;;1.27;1.13;;;;;;;;;;5012727;28;20580;-74
2021/07/17 01:29:44;;;;;;;1.57;1.47;;;;;;;;;;5015161;28;20424;-74
2021/07/17 01:32:10;;;;;;;1.50;1.40;;;;;;;;;;5021431;28;20426;-75
2021/07/17 01:34:36;;;;;;;2.10;2.00;;;;;;;;;;5026450;28;20561;-74
2021/07/17 01:37:02;;;;;;;6.20;1.73;;;;;;;;;;5008838;28;20420;-75
2021/07/17 01:39:28;;;;;;;1.83;1.20;;;;;;;;;;4995300;28;20415;-75
2021/07/17 01:41:54;;;;;;;1.07;1.07;;;;;;;;;;5012338;28;20933;-74
2021/07/17 01:44:20;;;;;;;1.10;1.00;;;;;;;;;;5014795;28;20418;-74
2021/07/17 01:46:47;;;;;;;1.50;1.40;;;;;;;;;;5014767;28;20900;-74
2021/07/17 01:49:13;;;;;;;1.43;1.33;;;;;;;;;;5014709;28;20412;-74
2021/07/17 01:51:39;;;;;;;1.13;1.13;;;;;;;;;;5014473;28;20432;-74
2021/07/17 01:54:05;;;;;;;1.93;1.67;;;;;;;;;;5005402;28;20830;-74
2021/07/17 01:56:31;;;;;;;1.70;1.40;;;;;;;;;;5005316;28;20408;-74
2021/07/17 01:58:57;;;;;;;1.37;1.27;;;;;;;;;;4998310;28;20414;-74
2021/07/17 02:01:24;;;;;;;4.40;1.40;;;;;;;;;;5014634;28;20412;-75
2021/07/17 02:03:50;;;;;;;1.70;1.60;;;;;;;;;;5018259;28;20436;-74
2021/07/17 02:06:22;;;;;;;1.73;1.57;;;;;;;;;;5034551;28;20418;-74
2021/07/17 02:08:48;;;;;;;2.13;1.80;;;;;;;;;;5031827;28;20396;-74
2021/07/17 02:11:14;;;;;;;2.17;1.97;;;;;;;;;;5014698;28;20384;-75
2021/07/17 02:13:41;;;;;;;5.23;1.10;;;;;;;;;;5014230;28;20777;-74
2021/07/17 02:16:07;;;;;;;0.93;0.90;;;;;;;;;;4997914;28;20528;-74
2021/07/17 02:18:34;;;;;;;1.03;1.03;;;;;;;;;;4994755;28;20417;-74
2021/07/17 02:21:04;;;;;;;1.00;1.00;;;;;;;;;;4996972;28;20935;-74
2021/07/17 02:23:30;;;;;;;2.90;2.60;;;;;;;;;;5013964;28;20441;-74
2021/07/17 02:25:56;;;;;;;1.17;1.17;;;;;;;;;;5013978;28;20894;-74
2021/07/17 02:28:22;;;;;;;1.93;1.83;;;;;;;;;;5012433;28;20433;-75
2021/07/17 02:30:49;;;;;;;2.10;1.43;;;;;;;;;;5013994;28;20462;-74
2021/07/17 02:33:15;;;;;;;0.80;0.80;;;;;;;;;;5026461;28;20456;-74
2021/07/17 02:35:41;;;;;;;5.77;1.90;;;;;;;;;;5032047;28;20894;-75
2021/07/17 02:38:07;;;;;;;0.87;0.87;;;;;;;;;;5013814;28;20885;-75
2021/07/17 02:40:33;;;;;;;1.57;1.47;;;;;;;;;;5013675;28;20460;-74
2021/07/17 02:42:59;;;;;;;3.43;2.30;;;;;;;;;;5013746;28;20460;-74
2021/07/17 02:45:25;;;;;;;0.90;0.90;;;;;;;;;;5013709;28;20447;-74
2021/07/17 02:47:51;;;;;;;1.43;0.90;;;;;;;;;;5013669;28;20388;-74
2021/07/17 02:50:17;;;;;;;2.07;1.63;;;;;;;;;;5013894;28;20391;-74
2021/07/17 02:52:43;;;;;;;1.70;1.60;;;;;;;;;;5013757;28;20413;-74
2021/07/17 02:55:10;;;;;;;1.57;1.40;;;;;;;;;;5012947;28;20766;-75
2021/07/17 02:57:36;;;;;;;2.60;1.47;;;;;;;;;;5013077;28;20524;-75
2021/07/17 03:00:05;;;;;;;1.03;0.93;;;;;;;;;;5013694;28;20404;-74
2021/07/17 03:02:31;;;;;;;1.73;1.63;;;;;;;;;;5013061;28;20763;-74
2021/07/17 03:04:57;;;;;;;1.73;1.63;;;;;;;;;;5023737;28;20430;-75
2021/07/17 03:07:23;;;;;;;1.57;1.47;;;;;;;;;;5033128;28;20515;-74
2021/07/17 03:09:48;;;;;;;1.27;1.10;;;;;;;;;;5032920;28;20420;-75
2021/07/17 03:12:14;;;;;;;2.40;2.30;;;;;;;;;;5019788;28;20437;-75
2021/07/17 03:14:40;;;;;;;1.47;1.37;;;;;;;;;;5019565;28;20823;-74
2021/07/17 03:17:06;;;;;;;1.73;1.43;;;;;;;;;;4997469;28;20428;-74
2021/07/17 03:19:32;;;;;;;1.80;1.63;;;;;;;;;;4993553;28;20942;-74
2021/07/17 03:21:58;;;;;;;1.63;1.50;;;;;;;;;;4993348;28;20935;-74
2021/07/17 03:24:24;;;;;;;1.20;1.00;;;;;;;;;;4993272;28;20524;-74
2021/07/17 03:26:50;;;;;;;0.73;0.73;;;;;;;;;;5000939;28;20421;-74
2021/07/17 03:29:16;;;;;;;1.53;1.07;;;;;;;;;;5013021;28;20417;-75
2021/07/17 03:31:42;;;;;;;1.67;1.00;;;;;;;;;;5012900;28;20408;-74
2021/07/17 03:34:08;;;;;;;1.73;1.63;;;;;;;;;;5020657;28;20454;-75
2021/07/17 03:36:34;;;;;;;2.73;2.53;;;;;;;;;;5011965;28;20399;-75
2021/07/17 03:39:00;;;;;;;1.37;1.27;;;;;;;;;;4999715;28;20432;-75
2021/07/17 03:41:26;;;;;;;2.17;1.97;;;;;;;;;;4993062;28;20761;-74
2021/07/17 03:43:52;;;;;;;1.60;1.50;;;;;;;;;;4993076;28;20438;-75
2021/07/17 03:46:18;;;;;;;2.97;2.20;;;;;;;;;;4999969;28;20988;-75
2021/07/17 03:48:44;;;;;;;1.93;1.83;;;;;;;;;;5012933;28;20408;-75
2021/07/17 03:51:10;;;;;;;1.67;1.57;;;;;;;;;;5012555;28;20864;-74
2021/07/17 03:53:36;;;;;;;1.43;1.33;;;;;;;;;;5012393;28;20438;-74
2021/07/17 03:56:02;;;;;;;1.93;1.83;;;;;;;;;;5007363;28;20490;-74
2021/07/17 03:58:28;;;;;;;1.83;1.73;;;;;;;;;;4998292;28;20425;-75
2021/07/17 04:00:53;;;;;;;1.57;1.47;;;;;;;;;;5012442;28;20388;-74
2021/07/17 04:03:19;;;;;;;2.27;1.47;;;;;;;;;;5007962;28;20459;-74
2021/07/17 04:05:45;;;;;;;1.50;1.40;;;;;;;;;;5015647;28;20401;-75
2021/07/17 04:08:11;;;;;;;2.63;2.50;;;;;;;;;;5010979;28;20420;-75
2021/07/17 04:10:37;;;;;;;1.47;1.37;;;;;;;;;;5012164;28;20413;-74
2021/07/17 04:13:04;;;;;;;1.03;1.03;;;;;;;;;;5012338;28;20418;-75
2021/07/17 04:15:30;;;;;;;1.57;1.50;;;;;;;;;;5012697;28;20472;-74
2021/07/17 04:17:56;;;;;;;1.63;1.53;;;;;;;;;;5012868;28;20445;-75
2021/07/17 04:20:22;;;;;;;1.47;1.37;;;;;;;;;;5012278;28;20811;-74
2021/07/17 04:22:48;;;;;;;1.73;1.60;;;;;;;;;;5012135;28;20501;-74
2021/07/17 04:25:14;;;;;;;2.40;1.80;;;;;;;;;;5012006;28;20523;-74
2021/07/17 04:27:40;;;;;;;3.00;2.80;;;;;;;;;;4994608;28;20874;-74
2021/07/17 04:30:10;;;;;;;2.80;2.60;;;;;;;;;;5004773;28;20804;-76
2021/07/17 04:32:36;;;;;;;0.83;0.83;;;;;;;;;;5020924;28;20587;-76
2021/07/17 04:35:03;;;;;;;1.70;1.60;;;;;;;;;;5027072;28;20467;-77
2021/07/17 04:37:29;;;;;;;3.50;1.87;;;;;;;;;;4999417;28;20800;-77
2021/07/17 04:39:55;;;;;;;2.13;1.97;;;;;;;;;;5003611;28;20848;-77
2021/07/17 04:42:21;;;;;;;1.50;1.37;;;;;;;;;;5022688;28;20801;-77
2021/07/17 04:44:47;;;;;;;0.70;0.70;;;;;;;;;;5017612;28;20454;-76
2021/07/17 04:47:13;;;;;;;2.00;1.87;;;;;;;;;;5009953;28;20412;-77
2021/07/17 04:49:39;;;;;;;2.30;1.40;;;;;;;;;;5016294;28;20456;-77
2021/07/17 04:52:05;;;;;;;2.80;1.47;;;;;;;;;;5013442;28;20459;-77
2021/07/17 04:54:43;;;;;;;0.90;0.80;;;;;;;;;;5028994;23;20512;-75
2021/07/17 04:57:12;;;;;;;1.00;0.90;;;;;;;;;;5026795;28;20458;-75
2021/07/17 04:59:40;;;;;;;1.00;0.90;;;;;;;;;;5027678;28;20411;-75
2021/07/17 05:02:12;;;;;;;1.30;1.20;;;;;;;;;;5015051;28;20994;-75
2021/07/17 05:04:46;;;;;;;1.83;1.73;;;;;;;;;;5015450;28;20433;-75
2021/07/17 05:10:07;;;;;;;1.30;1.20;;;;;;;;;;4998792;28;20516;-75
2021/07/17 05:12:39;;;;;;;3.40;2.10;;;;;;;;;;5009425;28;20562;-75
2021/07/17 05:15:21;;;;;;;2.80;2.13;;;;;;;;;;4993964;28;20480;-75
2021/07/17 05:21:03;;;;;;;0.83;0.83;;;;;;;;;;4975766;28;20512;-75
2021/07/17 05:23:29;;;;;;;1.83;1.73;;;;;;;;;;4995348;28;20424;-75
2021/07/17 05:29:12;;;;;;;2.60;1.93;;;;;;;;;;5015273;28;20447;-75
2021/07/17 05:31:44;;;;;;;1.50;1.40;;;;;;;;;;4996822;28;20429;-75
2021/07/17 05:34:33;;;;;;;2.60;1.43;;;;;;;;;;5006711;28;20495;-75
2021/07/17 05:37:08;;;;;;;1.20;1.10;;;;;;;;;;4995698;28;20496;-75
2021/07/17 05:39:40;;;;;;;6.83;1.30;;;;;;;;;;4995095;28;20460;-75
2021/07/17 05:42:23;;;;;;;1.37;1.37;;;;;;;;;;4993308;28;20788;-75
2021/07/17 05:44:59;;;;;;;1.17;1.17;;;;;;;;;;4994291;28;20841;-75
2021/07/17 05:53:45;;;;;;;;;;;;;;;;;;;;;
2021/07/17 05:56:11;;;;;;;1.87;1.77;;;;;;;;;;4998525;28;20477;-75
2021/07/17 05:58:42;;;;;;;1.20;1.10;;;;;;;;;;5012138;28;20516;-75
2021/07/17 06:01:08;;;;;;;1.77;1.63;;;;;;;;;;5006754;28;20801;-75
2021/07/17 06:03:37;;;;;;;3.07;1.43;;;;;;;;;;5011011;23;20446;-74
2021/07/17 06:06:03;;;;;;;3.37;1.67;;;;;;;;;;5013628;28;20424;-75
2021/07/17 06:08:34;;;;;;;1.27;1.17;;;;;;;;;;5013856;28;20432;-75
2021/07/17 06:11:00;;;;;;;1.03;0.87;;;;;;;;;;5014311;28;20483;-75
2021/07/17 06:13:26;;;;;;;1.00;1.00;;;;;;;;;;5014138;28;20424;-75
2021/07/17 06:15:57;;;;;;;1.87;1.77;;;;;;;;;;5013835;28;20511;-75
2021/07/17 06:18:26;;;;;;;1.47;1.37;;;;;;;;;;5014053;28;20405;-75
2021/07/17 06:20:59;;;;;;;2.03;1.90;;;;;;;;;;5013510;28;20459;-75
2021/07/17 06:23:36;;;;;;;2.70;1.90;;;;;;;;;;5013878;28;20951;-75
2021/07/17 06:26:02;;;;;;;4.90;2.40;;;;;;;;;;5021647;28;20928;-74
2021/07/17 06:28:28;;;;;;;1.90;1.13;;;;;;;;;;5030884;28;20431;-74
2021/07/17 06:30:54;;;;;;;1.90;1.33;;;;;;;;;;5026240;28;20840;-75
2021/07/17 06:33:19;;;;;;;1.90;1.80;;;;;;;;;;5012277;28;20440;-74
2021/07/17 06:35:45;;;;;;;1.77;1.67;;;;;;;;;;5013060;28;20480;-74
2021/07/17 06:38:11;;;;;;;1.57;1.47;;;;;;;;;;5013919;28;20416;-74
2021/07/17 06:40:37;;;;;;;1.27;1.17;;;;;;;;;;5013965;28;20475;-74
2021/07/17 06:43:03;;;;;;;3.30;1.67;;;;;;;;;;5012213;28;20939;-74
2021/07/17 06:45:29;;;;;;;0.80;0.80;;;;;;;;;;4994038;28;20434;-74
2021/07/17 06:47:55;;;;;;;3.77;1.70;;;;;;;;;;4993944;28;20909;-74
2021/07/17 06:50:22;;;;;;;1.70;1.60;;;;;;;;;;5011878;28;20982;-74
2021/07/17 06:52:48;;;;;;;2.50;1.83;;;;;;;;;;5013104;28;20444;-74
2021/07/17 06:55:14;;;;;;;2.97;1.97;;;;;;;;;;5020165;28;20464;-74
2021/07/17 06:57:41;;;;;;;2.90;1.47;;;;;;;;;;5024576;28;20528;-74
2021/07/17 07:00:08;;;;;;;1.00;1.00;;;;;;;;;;5033052;28;20454;-74
2021/07/17 07:02:34;;;;;;;3.07;1.37;;;;;;;;;;5008653;28;20522;-74
2021/07/17 07:05:00;;;;;;;0.90;0.90;;;;;;;;;;5009543;28;20626;-73
2021/07/17 07:07:26;;;;;;;1.60;1.50;;;;;;;;;;5008334;28;20455;-73
2021/07/17 07:09:52;;;;;;;1.73;1.60;;;;;;;;;;5010285;28;20436;-73
2021/07/17 07:12:17;;;;;;;1.13;1.03;;;;;;;;;;5010814;28;20538;-74
2021/07/17 07:14:44;;;;;;;2.17;1.97;;;;;;;;;;5010603;28;20961;-74
2021/07/17 07:17:10;;;;;;;1.53;1.43;;;;;;;;;;5011061;28;20444;-73
2021/07/17 07:19:36;;;;;;;1.83;1.73;;;;;;;;;;5012116;28;20887;-73
2021/07/17 07:22:03;;;;;;;1.93;1.40;;;;;;;;;;5011257;28;20443;-74
2021/07/17 07:24:29;;;;;;;1.47;1.37;;;;;;;;;;5013546;28;20978;-73
2021/07/17 07:26:56;;;;;;;1.70;1.60;;;;;;;;;;5019097;28;20444;-73
2021/07/17 07:29:23;;;;;;;2.77;2.27;;;;;;;;;;5012536;28;20783;-74
2021/07/17 07:31:49;;;;;;;1.13;1.13;;;;;;;;;;5008835;28;20499;-74
2021/07/17 07:34:14;;;;;;;1.90;1.80;;;;;;;;;;5009911;28;20465;-74
2021/07/17 07:36:40;;;;;;;2.87;2.63;;;;;;;;;;5010612;28;20496;-74
2021/07/17 07:39:06;;;;;;;1.00;0.90;;;;;;;;;;5011082;28;20448;-74
2021/07/17 07:41:32;;;;;;;3.20;3.00;;;;;;;;;;5009976;28;20549;-74
2021/07/17 07:43:58;;;;;;;4.17;3.00;;;;;;;;;;5006887;28;20456;-74
2021/07/17 07:46:24;;;;;;;2.93;2.30;;;;;;;;;;5010315;28;20952;-74
2021/07/17 07:48:50;;;;;;;1.90;1.57;;;;;;;;;;5010497;28;20503;-73
2021/07/17 07:51:16;;;;;;;2.90;1.80;;;;;;;;;;5012380;28;20406;-74
2021/07/17 07:53:42;;;;;;;3.80;2.60;;;;;;;;;;5010288;28;20453;-74
2021/07/17 07:56:08;;;;;;;1.60;1.50;;;;;;;;;;5020431;28;20815;-73
2021/07/17 07:58:34;;;;;;;1.73;1.57;;;;;;;;;;5014081;28;20433;-73
2021/07/17 08:01:00;;;;;;;2.67;2.43;;;;;;;;;;5009855;28;20911;-73
2021/07/17 08:03:26;;;;;;;2.13;2.03;;;;;;;;;;5009288;28;20523;-74
2021/07/17 08:05:52;;;;;;;3.33;2.10;;;;;;;;;;5011848;28;20414;-75
2021/07/17 08:08:18;;;;;;;2.30;1.90;;;;;;;;;;5010094;28;20439;-75
2021/07/17 08:10:44;;;;;;;1.77;1.67;;;;;;;;;;5009011;28;20933;-75
2021/07/17 08:13:09;;;;;;;4.03;3.73;;;;;;;;;;4991342;28;20437;-75
2021/07/17 08:15:35;;;;;;;3.80;2.47;;;;;;;;;;5000521;28;20582;-75
2021/07/17 08:18:01;;;;;;;3.73;2.03;;;;;;;;;;5007850;28;20720;-75
2021/07/17 08:20:27;;;;;;;3.83;2.20;;;;;;;;;;5011787;28;20905;-75
2021/07/17 08:22:53;;;;;;;2.70;2.03;;;;;;;;;;5010074;28;20401;-75
2021/07/17 08:25:19;;;;;;;2.00;1.90;;;;;;;;;;5019531;28;20472;-75
2021/07/17 08:27:45;;;;;;;3.53;2.30;;;;;;;;;;5023500;28;20883;-75
2021/07/17 08:30:12;;;;;;;2.30;2.03;;;;;;;;;;5031760;28;20420;-74
2021/07/17 08:32:38;;;;;;;1.17;1.07;;;;;;;;;;5031873;28;20409;-74
2021/07/17 08:35:05;;;;;;;2.50;2.40;;;;;;;;;;5028310;28;20812;-74
2021/07/17 08:37:34;;;;;;;1.93;1.73;;;;;;;;;;5011594;28;20863;-75
2021/07/17 08:40:00;;;;;;;1.97;1.77;;;;;;;;;;5010392;28;20444;-75
2021/07/17 08:42:26;;;;;;;2.23;2.13;;;;;;;;;;5011892;28;20384;-75
2021/07/17 08:44:54;;;;;;;2.20;1.73;;;;;;;;;;5011636;28;20452;-74
2021/07/17 08:47:21;;;;;;;2.13;2.03;;;;;;;;;;5011588;28;20414;-75
2021/07/17 08:49:47;;;;;;;1.83;1.63;;;;;;;;;;5011812;28;20388;-74
2021/07/17 08:52:13;;;;;;;3.50;2.73;;;;;;;;;;5011810;28;20423;-75
2021/07/17 08:54:40;;;;;;;3.93;3.50;;;;;;;;;;5013508;28;20505;-75
2021/07/17 08:57:09;;;;;;;2.73;2.53;;;;;;;;;;5023069;28;20388;-75
2021/07/17 08:59:36;;;;;;;2.40;2.20;;;;;;;;;;5023795;28;20476;-75
2021/07/17 09:02:01;;;;;;;1.53;1.43;;;;;;;;;;5018942;28;20461;-75
2021/07/17 09:04:28;;;;;;;3.70;3.50;;;;;;;;;;5009436;28;20952;-75
2021/07/17 09:06:54;;;;;;;3.00;2.00;;;;;;;;;;5011266;28;20414;-75
2021/07/17 09:09:27;;;;;;;2.50;2.40;;;;;;;;;;5010891;28;20400;-75
2021/07/17 09:11:53;;;;;;;1.63;1.53;;;;;;;;;;5011556;28;20455;-75
2021/07/17 09:14:34;;;;;;;2.73;1.73;;;;;;;;;;5011392;28;20469;-75
2021/07/17 09:17:00;;;;;;;1.60;1.23;;;;;;;;;;5010958;28;20404;-75
2021/07/17 09:19:26;;;;;;;1.27;1.17;;;;;;;;;;5011132;28;20872;-75
2021/07/17 09:21:55;;;;;;;1.30;1.17;;;;;;;;;;5011438;28;20527;-75
2021/07/17 09:24:22;;;;;;;1.87;1.50;;;;;;;;;;5011365;28;20929;-74
2021/07/17 09:26:51;;;;;;;2.33;2.23;;;;;;;;;;5020507;28;20450;-74
2021/07/17 09:29:17;;;;;;;1.37;1.27;;;;;;;;;;5028187;28;20404;-75
2021/07/17 09:31:49;;;;;;;1.83;1.73;;;;;;;;;;5010765;28;20400;-75
2021/07/17 09:34:15;;;;;;;4.87;2.03;;;;;;;;;;5012022;28;20424;-76
2021/07/17 09:36:53;;;;;;;1.13;1.00;;;;;;;;;;5014706;28;20875;-76
2021/07/17 09:39:20;;;;;;;1.23;0.90;;;;;;;;;;5014475;28;20870;-76
2021/07/17 09:41:54;;;;;;;2.27;1.70;;;;;;;;;;5012760;28;20472;-76
2021/07/17 09:44:23;;;;;;;1.53;0.90;;;;;;;;;;5014572;28;20461;-76
2021/07/17 09:46:49;;;;;;;1.20;1.10;;;;;;;;;;5013099;28;20436;-77
2021/07/17 09:49:17;;;;;;;1.17;1.17;;;;;;;;;;5012565;28;20400;-77
2021/07/17 09:51:43;;;;;;;1.47;1.40;;;;;;;;;;5012491;28;20987;-76
2021/07/17 09:54:10;;;;;;;3.00;2.07;;;;;;;;;;5012203;28;20416;-76
2021/07/17 09:56:37;;;;;;;1.43;1.33;;;;;;;;;;5020089;28;20929;-76
2021/07/17 09:59:06;;;;;;;1.30;1.13;;;;;;;;;;5024095;28;20425;-76
2021/07/17 10:01:33;;;;;;;1.83;1.73;;;;;;;;;;4992671;28;20458;-76
2021/07/17 10:04:01;;;;;;;2.20;2.10;;;;;;;;;;5000898;28;20449;-76
2021/07/17 10:06:32;;;;;;;2.00;1.30;;;;;;;;;;5013446;28;20520;-76
2021/07/17 10:08:59;;;;;;;1.67;1.57;;;;;;;;;;5013162;28;20408;-76
2021/07/17 10:11:26;;;;;;;1.73;1.63;;;;;;;;;;5013642;28;20409;-76
2021/07/17 10:13:52;;;;;;;2.90;1.70;;;;;;;;;;5013931;28;20856;-77
2021/07/17 10:16:19;;;;;;;1.60;1.50;;;;;;;;;;5013493;28;20438;-76
2021/07/17 10:18:45;;;;;;;1.10;1.03;;;;;;;;;;5014385;28;20416;-76
2021/07/17 10:21:12;;;;;;;1.80;1.70;;;;;;;;;;5013465;28;20406;-77
2021/07/17 10:23:38;;;;;;;0.80;0.77;;;;;;;;;;5012061;28;20431;-76
2021/07/17 10:26:04;;;;;;;2.13;2.03;;;;;;;;;;5021308;28;20431;-76
2021/07/17 10:28:30;;;;;;;1.50;1.40;;;;;;;;;;5012348;28;20801;-76
2021/07/17 10:30:58;;;;;;;1.60;1.50;;;;;;;;;;5013828;28;20499;-76
2021/07/17 10:33:24;;;;;;;1.20;1.10;;;;;;;;;;5013780;28;20398;-76
2021/07/17 10:35:51;;;;;;;1.60;1.50;;;;;;;;;;5011307;28;20453;-76
2021/07/17 10:38:18;;;;;;;1.40;1.30;;;;;;;;;;5013100;28;20432;-76
2021/07/17 10:40:44;;;;;;;1.00;1.00;;;;;;;;;;5011080;28;20523;-76
2021/07/17 10:43:10;;;;;;;1.10;1.00;;;;;;;;;;5017230;28;20432;-76
2021/07/17 10:45:38;;;;;;;2.47;2.37;;;;;;;;;;5013465;28;20476;-76
2021/07/17 10:48:04;;;;;;;1.90;1.80;;;;;;;;;;5013069;28;20835;-76
2021/07/17 10:50:36;;;;;;;1.33;1.27;;;;;;;;;;5013114;28;20517;-76
2021/07/17 10:53:02;;;;;;;0.90;0.90;;;;;;;;;;5013262;28;20441;-76
2021/07/17 10:55:36;;;;;;;1.33;1.23;;;;;;;;;;5063215;23;20891;-77
2021/07/17 10:58:12;;;;;;;1.40;0.80;;;;;;;;;;5016136;28;20926;-76
2021/07/17 11:00:55;;;;;;;1.00;1.00;;;;;;;;;;5014995;28;20421;-76
2021/07/17 11:03:32;;;;;;;1.30;1.10;;;;;;;;;;5030724;28;20495;-77
2021/07/17 11:06:18;;;;;;;1.50;1.30;;;;;;;;;;4998599;28;20552;-77
2021/07/17 11:08:44;;;;;;;1.57;1.47;;;;;;;;;;4999077;28;20512;-77
2021/07/17 11:11:28;;;;;;;7.30;1.27;;;;;;;;;;4995517;28;20465;-78
2021/07/17 11:14:14;;;;;;;2.60;1.93;;;;;;;;;;5004207;28;20468;-78
2021/07/17 11:16:47;;;;;;;1.40;1.30;;;;;;;;;;4998751;28;20517;-78
2021/07/17 11:19:26;;;;;;;1.93;1.83;;;;;;;;;;5001012;28;20496;-78
2021/07/17 11:21:53;;;;;;;1.10;1.10;;;;;;;;;;4989219;28;20452;-77
2021/07/17 11:24:20;;;;;;;1.17;1.17;;;;;;;;;;4991363;28;20458;-77
2021/07/17 11:26:46;;;;;;;1.10;1.00;;;;;;;;;;5004148;28;20469;-77
2021/07/17 11:29:15;;;;;;;1.53;1.00;;;;;;;;;;4991304;28;20450;-77
2021/07/17 11:31:49;;;;;;;1.03;0.97;;;;;;;;;;4992329;28;21211;-77
2021/07/17 11:34:17;;;;;;;1.33;0.93;;;;;;;;;;4993941;28;20457;-77
2021/07/17 11:36:43;;;;;;;1.10;0.90;;;;;;;;;;4992241;28;20445;-77
2021/07/17 11:39:11;;;;;;;1.40;1.30;;;;;;;;;;4990148;28;20430;-77
2021/07/17 11:41:37;;;;;;;1.27;1.17;;;;;;;;;;4991930;28;20445;-77
2021/07/17 11:44:04;;;;;;;1.00;1.00;;;;;;;;;;4988973;28;20454;-77
2021/07/17 11:46:30;;;;;;;1.23;1.13;;;;;;;;;;4988314;28;20439;-78
2021/07/17 11:49:06;;;;;;;1.33;1.23;;;;;;;;;;4992224;28;20442;-78
2021/07/17 11:51:47;;;;;;;1.10;1.00;;;;;;;;;;4985763;28;20431;-77
2021/07/17 11:54:13;;;;;;;1.03;0.90;;;;;;;;;;4996724;28;20479;-77
2021/07/17 11:56:39;;;;;;;0.70;0.63;;;;;;;;;;4990474;28;20468;-77
2021/07/17 11:59:15;;;;;;;5.30;1.27;;;;;;;;;;4991998;28;20436;-77
2021/07/17 12:02:00;;;;;;;0.80;0.80;;;;;;;;;;4990626;28;20431;-77
2021/07/17 12:04:33;;;;;;;1.07;0.97;;;;;;;;;;4991447;28;20811;-78
2021/07/17 12:07:02;;;;;;;1.10;1.00;;;;;;;;;;4992448;28;20978;-78
2021/07/17 12:09:33;;;;;;;1.10;1.00;;;;;;;;;;4991790;28;20480;-78
2021/07/17 12:12:14;;;;;;;1.17;1.07;;;;;;;;;;4990870;28;20456;-77
2021/07/17 12:14:40;;;;;;;0.80;0.80;;;;;;;;;;4988188;28;20904;-77
2021/07/17 12:17:06;;;;;;;2.60;0.83;;;;;;;;;;4986818;28;20503;-77
2021/07/17 12:19:32;;;;;;;0.70;0.67;;;;;;;;;;4988231;28;20840;-77
2021/07/17 12:21:58;;;;;;;1.10;0.93;;;;;;;;;;4985165;28;20493;-77
2021/07/17 12:24:24;;;;;;;0.93;0.80;;;;;;;;;;4987522;28;20457;-77
2021/07/17 12:26:51;;;;;;;0.80;0.70;;;;;;;;;;4987936;28;20446;-77
2021/07/17 12:29:17;;;;;;;0.97;0.80;;;;;;;;;;4991810;28;20438;-77
2021/07/17 12:31:58;;;;;;;0.90;0.90;;;;;;;;;;4990644;28;20431;-77
2021/07/17 12:34:24;;;;;;;1.00;0.87;;;;;;;;;;4987761;28;20506;-78
2021/07/17 12:36:50;;;;;;;2.40;1.23;;;;;;;;;;4990296;28;20451;-77
2021/07/17 12:39:22;;;;;;;1.10;1.00;;;;;;;;;;4990829;28;20430;-78
2021/07/17 12:41:52;;;;;;;0.80;0.73;;;;;;;;;;4989577;28;20469;-77
2021/07/17 12:44:18;;;;;;;2.83;0.93;;;;;;;;;;4989106;28;20907;-77
2021/07/17 12:46:48;;;;;;;10.70;0.80;;;;;;;;;;4991303;28;20426;-77
2021/07/17 12:49:18;;;;;;;0.93;0.93;;;;;;;;;;4991252;28;20442;-77
2021/07/17 12:51:46;;;;;;;0.93;0.93;;;;;;;;;;4991763;28;20848;-77
2021/07/17 12:54:16;;;;;;;0.80;0.80;;;;;;;;;;5004982;28;20988;-78
2021/07/17 12:56:48;;;;;;;1.03;1.00;;;;;;;;;;4989327;28;20917;-77
2021/07/17 12:59:15;;;;;;;0.90;0.77;;;;;;;;;;5003522;28;20447;-77
2021/07/17 13:01:49;;;;;;;0.70;0.70;;;;;;;;;;4989754;28;20540;-77
2021/07/17 13:04:16;;;;;;;0.70;0.60;;;;;;;;;;4989904;28;20454;-78
2021/07/17 13:06:42;;;;;;;0.87;0.67;;;;;;;;;;4992435;28;20424;-77
2021/07/17 13:09:09;;;;;;;0.83;0.83;;;;;;;;;;4995274;28;20424;-77
2021/07/17 13:11:35;;;;;;;0.90;0.87;;;;;;;;;;4997522;28;20437;-77
2021/07/17 13:14:02;;;;;;;1.00;0.80;;;;;;;;;;4992217;28;20457;-77
2021/07/17 13:16:29;;;;;;;0.63;0.63;;;;;;;;;;4992926;28;20956;-77
2021/07/17 13:18:56;;;;;;;0.70;0.63;;;;;;;;;;4994014;28;20439;-77
2021/07/17 13:21:32;;;;;;;0.77;0.77;;;;;;;;;;4994553;28;20490;-76
2021/07/17 13:23:59;;;;;;;0.60;0.60;;;;;;;;;;4984491;28;20802;-77
2021/07/17 13:26:27;;;;;;;1.07;0.60;;;;;;;;;;4992441;28;20436;-76
2021/07/17 13:28:58;;;;;;;0.90;0.60;;;;;;;;;;4999542;28;20444;-77
2021/07/17 13:31:28;;;;;;;0.70;0.60;;;;;;;;;;4996735;28;20440;-77
2021/07/17 13:34:13;;;;;;;0.50;0.50;;;;;;;;;;4994450;28;20498;-77
2021/07/17 13:36:55;;;;;;;0.70;0.70;;;;;;;;;;4994304;28;20439;-77
2021/07/17 13:39:28;;;;;;;1.27;0.80;;;;;;;;;;4995944;28;20924;-76
2021/07/17 13:42:04;;;;;;;1.20;0.73;;;;;;;;;;4997995;28;20435;-77
2021/07/17 13:44:30;;;;;;;0.60;0.50;;;;;;;;;;4997422;28;20452;-77
2021/07/17 13:47:10;;;;;;;1.10;0.90;;;;;;;;;;4998376;28;20431;-77
2021/07/17 13:49:36;;;;;;;0.50;0.50;;;;;;;;;;4989798;28;20451;-76
2021/07/17 13:52:02;;;;;;;0.87;0.87;;;;;;;;;;4998682;28;20848;-77
2021/07/17 13:54:28;;;;;;;1.00;0.80;;;;;;;;;;4996920;28;20476;-77
2021/07/17 13:56:54;;;;;;;0.67;0.67;;;;;;;;;;4995924;28;20781;-77
2021/07/17 13:59:29;;;;;;;0.60;0.60;;;;;;;;;;5009618;28;20864;-77
2021/07/17 14:02:05;;;;;;;0.60;0.60;;;;;;;;;;4991991;28;20439;-77
2021/07/17 14:04:31;;;;;;;0.60;0.60;;;;;;;;;;4995919;28;20882;-77
2021/07/17 14:06:57;;;;;;;0.60;0.60;;;;;;;;;;4998656;28;20429;-77
2021/07/17 14:09:23;;;;;;;0.60;0.57;;;;;;;;;;5004668;28;20450;-77
2021/07/17 14:11:49;;;;;;;0.90;0.80;;;;;;;;;;4997087;28;20436;-77
2021/07/17 14:14:15;;;;;;;2.27;0.90;;;;;;;;;;4996776;28;20951;-77
2021/07/17 14:16:41;;;;;;;0.50;0.50;;;;;;;;;;4993207;28;20455;-76
2021/07/17 14:19:07;;;;;;;0.60;0.60;;;;;;;;;;4992678;28;20967;-77
2021/07/17 14:21:33;;;;;;;0.83;0.60;;;;;;;;;;4989452;28;20936;-77
2021/07/17 14:23:59;;;;;;;0.50;0.50;;;;;;;;;;4994006;28;20520;-77
2021/07/17 14:26:25;;;;;;;0.70;0.67;;;;;;;;;;4993413;28;20944;-77
2021/07/17 14:28:51;;;;;;;0.60;0.60;;;;;;;;;;4995362;28;20503;-77
2021/07/17 14:31:17;;;;;;;0.60;0.50;;;;;;;;;;4996194;28;20413;-77
2021/07/17 14:33:43;;;;;;;0.70;0.50;;;;;;;;;;4995860;28;20526;-76
2021/07/17 14:36:09;;;;;;;0.60;0.60;;;;;;;;;;4992911;28;20465;-77
2021/07/17 14:38:36;;;;;;;0.60;0.60;;;;;;;;;;4995045;28;20511;-77
2021/07/17 14:41:05;;;;;;;0.60;0.60;;;;;;;;;;4995070;28;20437;-77
2021/07/17 14:43:31;;;;;;;0.60;0.60;;;;;;;;;;5001973;28;20506;-77
2021/07/17 14:45:57;;;;;;;1.00;0.90;;;;;;;;;;4992882;28;20467;-77
2021/07/17 14:48:23;;;;;;;2.33;0.77;;;;;;;;;;4993762;28;20441;-77
2021/07/17 14:50:49;;;;;;;0.80;0.80;;;;;;;;;;4994756;28;20416;-77
2021/07/17 14:53:15;;;;;;;0.50;0.50;;;;;;;;;;4992199;28;20926;-77
2021/07/17 14:55:43;;;;;;;0.60;0.50;;;;;;;;;;4991263;28;20476;-77
2021/07/17 14:58:09;;;;;;;0.80;0.63;;;;;;;;;;4993457;28;20432;-76
2021/07/17 15:00:35;;;;;;;0.57;0.53;;;;;;;;;;4993631;28;20448;-77
2021/07/17 15:03:01;;;;;;;0.67;0.67;;;;;;;;;;4992682;28;20465;-76